Time;durP1;ratioP1;P1;durP2;ratioP2;P2;SDS_P1;SDS_P2;PMS_P1;PMS_P2;Temp;Humidity;BMP_temperature;BMP_pressure;BME280_temperature;BME280_humidity;BME280_pressure;Samples;Min_cycle;Max_cycle;Signal;HPM_P1;HPM_P2
2022/08/29 00:02:00;;;;;;;8.38;3.47;;;26.00;87.00;;;;;;1885616;75;21028;-60
2022/08/29 00:04:30;;;;;;;12.88;3.60;;;25.80;86.90;;;;;;1885613;76;21027;-59
2022/08/29 00:06:59;;;;;;;12.75;5.08;;;25.50;85.50;;;;;;1885515;76;21032;-59
2022/08/29 00:09:30;;;;;;;9.33;4.08;;;25.20;85.00;;;;;;1885627;76;21478;-59
2022/08/29 00:11:59;;;;;;;8.38;3.02;;;24.80;84.60;;;;;;1885691;76;21059;-59
2022/08/29 00:14:29;;;;;;;7.28;3.25;;;24.60;84.60;;;;;;1885581;76;21024;-59
2022/08/29 00:16:59;;;;;;;8.20;3.72;;;24.30;85.00;;;;;;1885596;75;21168;-59
2022/08/29 00:19:29;;;;;;;13.58;4.28;;;24.10;85.50;;;;;;1885594;76;21032;-58
2022/08/29 00:21:58;;;;;;;9.05;3.50;;;24.00;86.10;;;;;;1885701;75;21052;-59
2022/08/29 00:24:28;;;;;;;7.95;3.47;;;23.90;86.50;;;;;;1885599;75;21019;-60
2022/08/29 00:26:59;;;;;;;9.65;3.65;;;23.80;86.40;;;;;;1885707;75;21500;-59
2022/08/29 00:29:28;;;;;;;6.92;4.03;;;23.60;86.60;;;;;;1885574;75;21085;-59
2022/08/29 00:31:58;;;;;;;8.23;3.80;;;23.50;86.60;;;;;;1885673;75;21035;-59
2022/08/29 00:34:27;;;;;;;8.08;4.17;;;23.40;86.80;;;;;;1885663;75;21028;-59
2022/08/29 00:36:56;;;;;;;9.05;4.53;;;23.40;87.00;;;;;;1885683;75;21078;-59
2022/08/29 00:39:26;;;;;;;6.87;3.80;;;23.40;87.40;;;;;;1885680;76;21066;-58
2022/08/29 00:41:56;;;;;;;12.00;5.78;;;23.50;88.20;;;;;;1894946;75;21067;-58
2022/08/29 00:44:25;;;;;;;7.95;3.75;;;23.50;87.50;;;;;;1895857;75;21019;-58
2022/08/29 00:46:57;;;;;;;6.50;4.17;;;23.40;87.50;;;;;;1895864;76;21031;-58
2022/08/29 00:49:29;;;;;;;6.12;3.40;;;23.40;88.00;;;;;;1895869;76;21079;-58
2022/08/29 00:52:01;;;;;;;6.40;4.20;;;23.50;88.10;;;;;;1895937;74;21121;-58
2022/08/29 00:54:31;;;;;;;7.12;4.03;;;23.50;87.90;;;;;;1895832;75;21028;-58
2022/08/29 00:57:00;;;;;;;5.42;3.72;;;23.50;88.00;;;;;;1895858;74;21028;-58
2022/08/29 00:59:35;;;;;;;8.08;4.85;;;23.50;88.20;;;;;;1895900;75;21051;-58
2022/08/29 01:02:07;;;;;;;9.43;4.15;;;23.60;88.50;;;;;;1895813;76;21085;-58
2022/08/29 01:04:37;;;;;;;7.50;4.12;;;23.60;88.50;;;;;;1895889;76;21067;-58
2022/08/29 01:07:07;;;;;;;8.55;4.50;;;23.70;88.80;;;;;;1895770;74;21156;-58
2022/08/29 01:09:39;;;;;;;6.20;3.77;;;23.70;88.80;;;;;;1895839;75;21117;-59
2022/08/29 01:12:15;;;;;;;8.45;4.55;;;23.90;88.90;;;;;;1895801;75;21085;-59
2022/08/29 01:15:00;;;;;;;5.25;3.87;;;24.00;88.80;;;;;;1895923;76;21051;-59
2022/08/29 01:17:32;;;;;;;7.42;4.58;;;24.10;88.30;;;;;;1895934;75;21090;-59
2022/08/29 01:20:03;;;;;;;8.00;4.25;;;24.20;88.10;;;;;;1895904;76;21450;-58
2022/08/29 01:22:59;;;;;;;8.60;4.03;;;24.20;88.30;;;;;;1895901;74;21070;-58
2022/08/29 01:25:31;;;;;;;9.38;3.87;;;24.20;88.20;;;;;;1895939;76;21055;-58
2022/08/29 01:28:06;;;;;;;6.45;4.05;;;24.20;88.10;;;;;;1895852;76;21055;-58
2022/08/29 01:30:36;;;;;;;5.45;4.00;;;24.10;87.80;;;;;;1895973;75;21094;-58
2022/08/29 01:33:05;;;;;;;11.90;5.35;;;24.10;88.40;;;;;;1895772;75;21039;-58
2022/08/29 01:35:35;;;;;;;8.68;3.83;;;23.90;88.10;;;;;;1895910;76;21457;-58
2022/08/29 01:38:04;;;;;;;6.03;3.80;;;23.90;88.40;;;;;;1895793;75;21085;-58
2022/08/29 01:40:35;;;;;;;7.40;4.33;;;23.90;88.50;;;;;;1894551;76;21039;-58
2022/08/29 01:43:04;;;;;;;8.85;4.20;;;23.90;88.80;;;;;;1885732;76;21097;-58
2022/08/29 01:45:34;;;;;;;6.83;3.87;;;23.90;89.00;;;;;;1885770;75;21114;-59
2022/08/29 01:48:04;;;;;;;6.12;4.10;;;23.90;89.10;;;;;;1885782;75;21097;-59
2022/08/29 01:50:33;;;;;;;5.35;3.92;;;23.90;89.10;;;;;;1885709;75;21011;-58
2022/08/29 01:53:02;;;;;;;10.10;4.55;;;23.90;89.00;;;;;;1885624;75;21036;-58
2022/08/29 01:55:32;;;;;;;6.95;3.85;;;23.90;88.90;;;;;;1885789;76;21036;-59
2022/08/29 01:58:01;;;;;;;7.00;3.75;;;23.80;89.00;;;;;;1885808;75;21113;-59
2022/08/29 02:00:31;;;;;;;7.83;4.83;;;23.80;89.30;;;;;;1885797;75;21036;-59
2022/08/29 02:03:00;;;;;;;9.45;3.80;;;23.80;89.60;;;;;;1885682;75;21487;-59
2022/08/29 02:05:30;;;;;;;8.55;4.40;;;23.70;89.40;;;;;;1885783;76;21027;-59
2022/08/29 02:07:59;;;;;;;11.00;5.15;;;23.80;89.30;;;;;;1885651;76;21101;-59
2022/08/29 02:10:29;;;;;;;8.18;4.30;;;23.70;89.20;;;;;;1885799;76;21474;-59
2022/08/29 02:12:58;;;;;;;8.03;4.42;;;23.70;89.30;;;;;;1885782;76;21019;-59
2022/08/29 02:15:28;;;;;;;7.65;4.55;;;23.70;89.50;;;;;;1885715;76;21035;-59
2022/08/29 02:17:57;;;;;;;9.05;5.42;;;23.70;89.60;;;;;;1885650;75;21027;-58
2022/08/29 02:20:27;;;;;;;16.73;7.53;;;23.80;89.70;;;;;;1885722;76;21056;-59
2022/08/29 02:22:56;;;;;;;14.83;7.83;;;23.80;89.60;;;;;;1885756;75;21141;-59
2022/08/29 02:25:41;;;;;;;12.47;6.55;;;23.80;89.40;;;;;;1885706;76;21051;-59
2022/08/29 02:28:16;;;;;;;;;;;23.80;89.40;;;;;;1888564;76;21043;-58
2022/08/29 02:30:42;;;;;;;8.93;4.45;;;23.70;89.30;;;;;;1884861;75;20120;-58
2022/08/29 02:33:12;;;;;;;7.92;5.10;;;23.60;89.10;;;;;;1885754;75;21015;-58
2022/08/29 02:35:42;;;;;;;6.83;5.30;;;23.50;89.20;;;;;;1885675;76;21059;-58
2022/08/29 02:38:12;;;;;;;6.53;4.78;;;23.50;89.70;;;;;;1885633;76;21031;-59
2022/08/29 02:40:42;;;;;;;9.05;4.95;;;23.40;90.00;;;;;;1885752;75;21043;-59
2022/08/29 02:43:12;;;;;;;8.88;5.85;;;23.30;90.10;;;;;;1895311;74;21125;-58
2022/08/29 02:45:42;;;;;;;6.65;4.90;;;23.20;90.30;;;;;;1896030;76;21081;-59
2022/08/29 02:48:11;;;;;;;8.33;5.28;;;23.10;90.50;;;;;;1895858;75;21097;-58
2022/08/29 02:50:46;;;;;;;7.50;4.65;;;23.00;90.50;;;;;;1895886;76;21038;-59
2022/08/29 02:53:18;;;;;;;8.48;4.70;;;23.10;90.80;;;;;;1895983;76;21023;-58
2022/08/29 02:55:48;;;;;;;8.28;4.90;;;23.00;90.70;;;;;;1895900;76;21031;-58
2022/08/29 02:58:18;;;;;;;7.97;4.92;;;23.00;90.60;;;;;;1895875;76;21088;-58
2022/08/29 03:00:48;;;;;;;7.12;5.00;;;23.00;90.60;;;;;;1895844;75;21055;-58
2022/08/29 03:03:18;;;;;;;13.40;7.75;;;23.00;90.50;;;;;;1895863;75;21071;-58
2022/08/29 03:05:47;;;;;;;12.03;7.40;;;22.90;90.50;;;;;;1895891;76;21167;-59
2022/08/29 03:08:17;;;;;;;10.93;6.10;;;22.90;90.70;;;;;;1895903;74;21598;-58
2022/08/29 03:10:46;;;;;;;11.48;6.72;;;22.90;90.70;;;;;;1895958;75;21062;-58
2022/08/29 03:13:18;;;;;;;10.10;6.60;;;22.80;90.80;;;;;;1895979;76;21032;-58
2022/08/29 03:15:47;;;;;;;7.83;5.90;;;22.80;90.90;;;;;;1896043;76;21054;-58
2022/08/29 03:18:17;;;;;;;10.23;5.15;;;22.90;91.00;;;;;;1895954;76;21070;-58
2022/08/29 03:20:46;;;;;;;13.83;7.55;;;22.90;91.10;;;;;;1895934;75;21023;-58
2022/08/29 03:23:16;;;;;;;11.85;6.70;;;23.00;91.10;;;;;;1895858;74;21023;-58
2022/08/29 03:25:45;;;;;;;11.65;5.78;;;23.10;90.90;;;;;;1895906;74;21085;-58
2022/08/29 03:28:15;;;;;;;9.10;6.25;;;23.10;90.90;;;;;;1895810;75;21038;-58
2022/08/29 03:30:44;;;;;;;8.20;5.87;;;23.10;90.90;;;;;;1896002;74;21086;-58
2022/08/29 03:33:14;;;;;;;8.68;5.70;;;23.10;90.90;;;;;;1895832;75;21031;-58
2022/08/29 03:35:43;;;;;;;8.00;5.45;;;23.20;90.90;;;;;;1895986;76;21015;-58
2022/08/29 03:38:12;;;;;;;6.83;5.42;;;23.20;90.80;;;;;;1895864;76;21109;-58
2022/08/29 03:40:43;;;;;;;10.48;7.62;;;23.20;90.70;;;;;;1895938;76;21595;-58
2022/08/29 03:43:12;;;;;;;7.75;5.10;;;23.10;90.70;;;;;;1885331;75;21049;-58
2022/08/29 03:45:42;;;;;;;5.92;5.03;;;23.10;90.80;;;;;;1881017;76;21073;-58
2022/08/29 03:48:11;;;;;;;7.40;4.78;;;23.10;90.90;;;;;;1881096;76;21025;-58
2022/08/29 03:50:40;;;;;;;7.33;4.80;;;23.10;90.80;;;;;;1881123;76;21018;-58
2022/08/29 03:53:10;;;;;;;6.20;4.47;;;23.10;90.80;;;;;;1881025;76;21002;-58
2022/08/29 03:55:39;;;;;;;10.80;4.90;;;23.10;90.70;;;;;;1881095;76;21013;-58
2022/08/29 03:58:09;;;;;;;7.00;4.60;;;23.10;90.80;;;;;;1880963;76;21005;-58
2022/08/29 04:00:38;;;;;;;5.20;4.40;;;23.20;90.90;;;;;;1880947;76;21104;-58
2022/08/29 04:03:07;;;;;;;7.05;4.67;;;23.20;90.90;;;;;;1880990;76;21061;-58
2022/08/29 04:05:37;;;;;;;7.45;4.97;;;23.30;90.90;;;;;;1881064;76;21414;-58
2022/08/29 04:08:07;;;;;;;7.58;4.65;;;23.30;90.80;;;;;;1880983;76;21084;-58
2022/08/29 04:10:38;;;;;;;5.47;4.37;;;23.30;90.80;;;;;;1880977;76;21001;-58
2022/08/29 04:13:08;;;;;;;6.53;4.80;;;23.30;91.10;;;;;;1881118;76;21073;-58
2022/08/29 04:15:40;;;;;;;9.70;4.70;;;23.30;90.90;;;;;;1881093;76;21135;-58
2022/08/29 04:18:10;;;;;;;8.20;5.20;;;23.30;90.90;;;;;;1881095;76;21112;-58
2022/08/29 04:20:43;;;;;;;7.45;4.47;;;23.30;90.80;;;;;;1880942;76;21013;-58
2022/08/29 04:23:14;;;;;;;7.58;4.85;;;23.30;90.90;;;;;;1880809;76;21083;-58
2022/08/29 04:25:44;;;;;;;10.28;5.42;;;23.30;90.80;;;;;;1880913;76;21083;-58
2022/08/29 04:28:14;;;;;;;7.25;4.90;;;23.30;90.90;;;;;;1880929;76;21002;-58
2022/08/29 04:30:47;;;;;;;6.67;4.70;;;23.20;90.90;;;;;;1880963;76;21100;-58
2022/08/29 04:33:17;;;;;;;6.03;4.80;;;23.30;91.10;;;;;;1881170;76;21079;-58
2022/08/29 04:35:47;;;;;;;6.60;4.35;;;23.30;91.10;;;;;;1880883;76;21010;-58
2022/08/29 04:38:17;;;;;;;7.22;4.37;;;23.40;91.10;;;;;;1881033;76;20986;-58
2022/08/29 04:40:47;;;;;;;10.38;5.78;;;23.50;91.10;;;;;;1880993;76;21087;-58
2022/08/29 04:43:17;;;;;;;7.87;5.47;;;23.50;91.00;;;;;;1888082;76;21078;-58
2022/08/29 04:45:47;;;;;;;6.25;5.12;;;23.50;90.90;;;;;;1895900;75;21051;-58
2022/08/29 04:48:17;;;;;;;9.10;5.00;;;23.50;90.90;;;;;;1894978;76;21031;-58
2022/08/29 04:50:47;;;;;;;6.72;4.97;;;23.40;90.90;;;;;;1895933;75;21027;-58
2022/08/29 04:53:17;;;;;;;10.40;5.72;;;23.40;91.00;;;;;;1895118;75;21559;-58
2022/08/29 04:55:48;;;;;;;10.03;6.50;;;23.40;91.00;;;;;;1895713;75;21121;-58
2022/08/29 04:58:18;;;;;;;5.50;4.30;;;23.40;91.10;;;;;;1894704;76;21473;-58
2022/08/29 05:00:47;;;;;;;5.90;4.40;;;23.40;91.00;;;;;;1895733;75;21122;-58
2022/08/29 05:03:16;;;;;;;7.65;5.22;;;23.40;90.90;;;;;;1895799;76;21101;-58
2022/08/29 05:05:46;;;;;;;7.42;4.50;;;23.50;91.20;;;;;;1895798;75;21089;-58
2022/08/29 05:08:15;;;;;;;6.87;4.92;;;23.50;90.80;;;;;;1895788;76;21109;-58
2022/08/29 05:10:46;;;;;;;7.62;4.40;;;23.50;90.80;;;;;;1895680;75;21090;-58
2022/08/29 05:13:15;;;;;;;8.93;4.58;;;23.60;90.80;;;;;;1895800;76;21003;-58
2022/08/29 05:15:45;;;;;;;6.47;4.10;;;23.70;90.80;;;;;;1895902;75;21113;-58
2022/08/29 05:18:16;;;;;;;7.50;4.80;;;23.80;90.70;;;;;;1895939;74;21067;-58
2022/08/29 05:20:47;;;;;;;9.25;5.92;;;23.80;90.50;;;;;;1895810;74;21036;-58
2022/08/29 05:23:18;;;;;;;7.78;5.15;;;23.90;90.50;;;;;;1895893;75;21037;-58
2022/08/29 05:25:52;;;;;;;7.25;4.15;;;23.90;90.40;;;;;;1895848;76;21160;-58
2022/08/29 05:28:21;;;;;;;6.03;4.30;;;23.90;90.40;;;;;;1856250;77;21058;-58
2022/08/29 05:30:51;;;;;;;6.53;4.78;;;23.90;90.30;;;;;;1857820;77;21042;-58
2022/08/29 05:33:20;;;;;;;6.78;4.47;;;23.90;90.30;;;;;;1857645;77;21005;-58
2022/08/29 05:35:50;;;;;;;5.97;4.70;;;24.00;90.40;;;;;;1857718;76;21061;-58
2022/08/29 05:38:19;;;;;;;9.03;5.12;;;24.10;90.60;;;;;;1857562;77;21038;-58
2022/08/29 05:40:49;;;;;;;7.35;5.75;;;24.10;90.60;;;;;;1857482;77;21097;-58
2022/08/29 05:43:18;;;;;;;6.87;4.45;;;24.20;90.40;;;;;;1853124;77;21062;-58
2022/08/29 05:45:48;;;;;;;9.20;4.40;;;24.20;90.30;;;;;;1806346;79;21576;-58
2022/08/29 05:48:17;;;;;;;8.15;4.78;;;24.30;90.20;;;;;;1879114;76;21172;-58
2022/08/29 05:50:47;;;;;;;5.40;4.33;;;24.50;90.10;;;;;;1879172;76;21035;-58
2022/08/29 05:53:18;;;;;;;5.95;5.08;;;24.50;90.00;;;;;;1879079;76;21098;-58
2022/08/29 05:55:47;;;;;;;13.13;7.50;;;24.60;90.00;;;;;;1879202;76;21125;-58
2022/08/29 05:58:17;;;;;;;8.40;6.62;;;24.60;89.90;;;;;;1879216;76;21043;-58
2022/08/29 06:00:48;;;;;;;9.60;7.03;;;24.60;89.70;;;;;;1879156;76;21052;-58
2022/08/29 06:03:17;;;;;;;10.20;6.60;;;24.60;89.70;;;;;;1879043;76;21338;-58
2022/08/29 06:05:51;;;;;;;10.35;7.10;;;24.60;89.70;;;;;;1879201;76;21025;-58
2022/08/29 06:08:21;;;;;;;9.23;6.90;;;24.60;89.80;;;;;;1879308;76;21044;-57
2022/08/29 06:10:51;;;;;;;8.28;6.45;;;24.60;90.20;;;;;;1879115;76;21127;-58
2022/08/29 06:13:20;;;;;;;12.35;9.03;;;24.60;90.00;;;;;;1879130;76;21494;-58
2022/08/29 06:15:50;;;;;;;14.55;6.92;;;24.60;89.80;;;;;;1879054;76;21309;-58
2022/08/29 06:18:19;;;;;;;11.55;7.75;;;24.60;89.90;;;;;;1878979;76;21204;-58
2022/08/29 06:20:48;;;;;;;16.20;12.25;;;24.70;89.90;;;;;;1879063;76;21101;-58
2022/08/29 06:23:18;;;;;;;16.55;10.18;;;24.60;89.90;;;;;;1879038;76;21107;-58
2022/08/29 06:25:49;;;;;;;18.70;11.30;;;24.70;90.00;;;;;;1879112;76;21012;-58
2022/08/29 06:28:19;;;;;;;19.67;11.03;;;24.70;90.10;;;;;;1877992;76;21067;-58
2022/08/29 06:30:49;;;;;;;19.62;11.73;;;24.80;90.20;;;;;;1879129;76;21043;-58
2022/08/29 06:33:18;;;;;;;22.95;11.50;;;24.80;90.20;;;;;;1878966;76;21063;-58
2022/08/29 06:35:47;;;;;;;23.83;13.48;;;24.80;90.30;;;;;;1879115;76;21075;-58
2022/08/29 06:38:17;;;;;;;24.45;14.98;;;24.80;90.30;;;;;;1879131;76;21102;-58
2022/08/29 06:40:46;;;;;;;24.10;12.65;;;24.80;90.30;;;;;;1879008;76;21035;-58
2022/08/29 06:43:16;;;;;;;23.20;13.03;;;24.90;90.40;;;;;;1879088;76;21039;-58
2022/08/29 06:45:45;;;;;;;22.85;13.13;;;24.90;90.50;;;;;;1895621;76;21152;-58
2022/08/29 06:48:15;;;;;;;18.37;11.20;;;24.90;90.50;;;;;;1895897;75;21104;-58
2022/08/29 06:50:44;;;;;;;18.12;10.10;;;24.90;90.60;;;;;;1895850;75;21063;-58
2022/08/29 06:53:14;;;;;;;15.45;9.45;;;24.80;90.60;;;;;;1895765;75;21173;-58
2022/08/29 06:55:43;;;;;;;15.85;9.80;;;24.80;90.70;;;;;;1895777;75;21008;-58
2022/08/29 06:58:12;;;;;;;12.58;8.58;;;24.90;90.70;;;;;;1895886;76;21105;-58
2022/08/29 07:00:43;;;;;;;14.30;9.43;;;24.80;90.70;;;;;;1895770;76;21109;-58
2022/08/29 07:03:13;;;;;;;10.38;7.58;;;24.80;90.80;;;;;;1895842;75;21011;-58
2022/08/29 07:05:42;;;;;;;8.70;7.25;;;24.90;90.90;;;;;;1895805;75;21043;-58
2022/08/29 07:08:12;;;;;;;9.33;7.00;;;24.80;91.00;;;;;;1895788;76;21031;-58
2022/08/29 07:10:44;;;;;;;10.00;5.80;;;24.80;91.10;;;;;;1895894;76;21092;-58
2022/08/29 07:13:14;;;;;;;7.78;5.50;;;24.80;91.10;;;;;;1895793;75;21043;-58
2022/08/29 07:15:44;;;;;;;10.43;5.80;;;24.80;91.10;;;;;;1895860;76;21125;-58
2022/08/29 07:18:13;;;;;;;8.05;5.53;;;24.70;91.00;;;;;;1895741;74;21113;-58
2022/08/29 07:20:43;;;;;;;11.55;8.00;;;24.80;91.10;;;;;;1895685;76;21172;-59
2022/08/29 07:23:12;;;;;;;12.30;6.97;;;24.80;91.00;;;;;;1895949;74;21482;-58
2022/08/29 07:25:42;;;;;;;6.33;5.33;;;24.90;91.00;;;;;;1895709;74;21035;-58
2022/08/29 07:28:12;;;;;;;9.05;5.90;;;24.90;90.90;;;;;;1895820;76;21051;-58
2022/08/29 07:30:42;;;;;;;13.55;5.95;;;25.00;91.00;;;;;;1895702;74;21007;-58
2022/08/29 07:33:12;;;;;;;7.37;5.78;;;25.00;91.10;;;;;;1895889;76;21035;-58
2022/08/29 07:35:42;;;;;;;10.55;6.17;;;25.10;91.20;;;;;;1895565;76;21485;-58
2022/08/29 07:38:11;;;;;;;9.28;5.65;;;25.20;90.80;;;;;;1895853;74;21031;-59
2022/08/29 07:40:42;;;;;;;11.40;6.67;;;25.30;90.60;;;;;;1895819;75;21039;-59
2022/08/29 07:43:11;;;;;;;9.10;5.60;;;25.40;90.40;;;;;;1895831;74;21035;-59
2022/08/29 07:45:41;;;;;;;9.83;6.72;;;25.40;90.50;;;;;;1885162;76;21053;-59
2022/08/29 07:48:10;;;;;;;6.40;5.37;;;25.60;90.60;;;;;;1881005;76;20997;-59
2022/08/29 07:50:42;;;;;;;9.18;5.80;;;25.70;90.20;;;;;;1874859;76;21041;-57
2022/08/29 07:53:11;;;;;;;9.35;5.58;;;25.80;89.90;;;;;;1854746;75;21500;-60
2022/08/29 07:55:42;;;;;;;12.25;8.60;;;25.90;89.40;;;;;;1867045;76;21472;-66
2022/08/29 07:58:12;;;;;;;7.30;6.60;;;26.00;89.00;;;;;;1879313;76;21072;-63
2022/08/29 08:00:42;;;;;;;10.40;7.22;;;26.10;88.90;;;;;;1874607;76;21077;-63
2022/08/29 08:03:13;;;;;;;11.80;6.08;;;26.10;88.70;;;;;;1848449;77;21075;-62
2022/08/29 08:05:42;;;;;;;11.45;8.15;;;26.20;88.20;;;;;;1856373;76;21069;-61
2022/08/29 08:08:11;;;;;;;8.48;6.65;;;26.20;89.30;;;;;;1843450;76;21085;-65
2022/08/29 08:10:45;;;;;;;12.88;7.17;;;26.20;88.30;;;;;;1843041;76;21101;-63
2022/08/29 08:13:34;;;;;;;15.93;9.23;;;26.20;88.40;;;;;;1895723;75;21131;-64
2022/08/29 08:16:09;;;;;;;9.00;6.85;;;26.30;88.70;;;;;;1895957;75;21176;-62
2022/08/29 08:18:40;;;;;;;10.93;6.45;;;26.40;88.60;;;;;;1892070;75;21016;-62
2022/08/29 08:21:09;;;;;;;7.67;6.33;;;26.50;87.90;;;;;;1927262;74;21000;-60
2022/08/29 08:23:40;;;;;;;7.53;6.45;;;26.50;87.60;;;;;;1944649;74;21193;-66
2022/08/29 08:26:10;;;;;;;7.45;5.75;;;26.60;87.80;;;;;;1944842;74;21087;-60
2022/08/29 08:28:41;;;;;;;13.03;6.20;;;26.60;87.40;;;;;;1944719;74;21076;-61
2022/08/29 08:31:12;;;;;;;6.90;5.83;;;26.70;87.20;;;;;;1944725;74;21068;-61
2022/08/29 08:33:43;;;;;;;7.87;5.53;;;26.80;86.90;;;;;;1944726;74;21056;-62
2022/08/29 08:36:20;;;;;;;6.72;5.97;;;26.90;86.50;;;;;;1944551;74;21072;-66
2022/08/29 08:38:51;;;;;;;8.60;5.55;;;26.90;86.20;;;;;;1917824;74;21023;-64
2022/08/29 08:41:35;;;;;;;15.25;6.83;;;27.00;85.80;;;;;;1890782;75;21038;-66
2022/08/29 08:44:07;;;;;;;7.45;6.03;;;27.10;85.70;;;;;;1877883;76;21023;-67
2022/08/29 08:46:56;;;;;;;9.30;4.65;;;27.30;84.90;;;;;;1878345;76;21139;-66
2022/08/29 08:49:29;;;;;;;9.73;5.45;;;27.30;84.10;;;;;;1886182;75;21077;-66
2022/08/29 08:52:01;;;;;;;7.08;5.33;;;27.40;83.80;;;;;;1871533;76;21077;-66
2022/08/29 08:54:33;;;;;;;6.70;6.00;;;27.40;82.60;;;;;;1886749;76;21097;-67
2022/08/29 08:57:09;;;;;;;7.37;5.58;;;27.50;82.50;;;;;;1886694;75;21128;-66
2022/08/29 08:59:42;;;;;;;8.95;5.78;;;27.50;82.20;;;;;;1886453;75;21038;-66
2022/08/29 09:02:17;;;;;;;6.20;5.60;;;27.60;81.60;;;;;;1886712;76;21030;-66
2022/08/29 09:04:58;;;;;;;6.17;5.58;;;27.60;80.50;;;;;;1884720;76;21163;-66
2022/08/29 09:08:04;;;;;;;7.45;4.70;;;27.60;80.10;;;;;;1886302;76;21147;-66
2022/08/29 09:10:58;;;;;;;9.03;5.00;;;27.60;79.80;;;;;;1886116;76;21117;-66
2022/08/29 09:13:42;;;;;;;8.58;4.25;;;27.70;80.30;;;;;;1887305;75;21074;-65
2022/08/29 09:16:26;;;;;;;9.60;5.35;;;27.80;80.10;;;;;;1887244;75;21046;-66
2022/08/29 09:18:58;;;;;;;9.17;4.07;;;27.80;80.10;;;;;;1887602;76;21126;-66
2022/08/29 09:21:48;;;;;;;10.60;4.62;;;27.90;79.80;;;;;;1886449;74;21042;-66
2022/08/29 09:24:38;;;;;;;6.80;3.87;;;28.00;79.50;;;;;;1961195;73;20975;-66
2022/08/29 09:27:09;;;;;;;7.33;3.33;;;28.10;78.90;;;;;;1961276;73;21033;-66
2022/08/29 09:29:39;;;;;;;5.37;2.72;;;28.20;78.70;;;;;;1959943;73;21033;-71
2022/08/29 09:32:13;;;;;;;6.17;3.10;;;28.20;78.10;;;;;;1960999;72;21013;-72
2022/08/29 09:34:54;;;;;;;3.90;2.62;;;28.30;77.90;;;;;;1959621;73;21099;-64
2022/08/29 09:37:34;;;;;;;3.55;2.65;;;28.30;77.30;;;;;;1931345;74;21518;-68
2022/08/29 09:40:09;;;;;;;8.50;3.65;;;28.40;76.60;;;;;;1931742;74;21152;-67
2022/08/29 09:42:41;;;;;;;4.35;2.90;;;28.40;76.80;;;;;;1931661;74;21105;-65
2022/08/29 09:45:27;;;;;;;5.37;2.92;;;28.50;76.50;;;;;;1931917;74;21473;-68
2022/08/29 09:48:13;;;;;;;4.67;2.90;;;28.60;76.10;;;;;;1930616;73;21051;-68
2022/08/29 09:50:41;;;;;;;3.27;2.27;;;28.70;75.60;;;;;;1931822;74;21027;-65
2022/08/29 09:53:11;;;;;;;5.50;3.52;;;28.70;72.90;;;;;;1931984;73;21074;-64
2022/08/29 09:55:43;;;;;;;4.53;2.20;;;28.80;72.00;;;;;;1930660;74;21000;-69
2022/08/29 09:58:22;;;;;;;5.67;3.42;;;28.90;70.60;;;;;;1926885;74;21083;-68
2022/08/29 10:01:08;;;;;;;4.75;2.20;;;29.00;69.80;;;;;;1931557;74;21112;-70
2022/08/29 10:03:44;;;;;;;11.18;9.58;;;29.00;68.60;;;;;;1931353;74;21416;-68
2022/08/29 10:06:19;;;;;;;4.62;2.60;;;29.10;68.80;;;;;;1931702;74;21240;-64
2022/08/29 10:09:07;;;;;;;3.77;2.95;;;29.10;68.80;;;;;;1930934;74;21108;-63
2022/08/29 10:12:00;;;;;;;5.70;3.10;;;29.20;68.90;;;;;;1931336;74;21139;-63
2022/08/29 10:14:44;;;;;;;8.03;3.67;;;29.30;68.20;;;;;;1930216;74;21081;-65
2022/08/29 10:20:16;;;;;;;11.60;9.05;;;29.50;67.20;;;;;;1931854;74;21264;-65
2022/08/29 10:22:47;;;;;;;5.10;3.45;;;29.50;67.10;;;;;;1931962;74;21030;-65
2022/08/29 10:25:19;;;;;;;4.33;3.15;;;29.60;66.80;;;;;;1931583;74;21585;-70
2022/08/29 10:27:59;;;;;;;7.37;2.80;;;29.70;67.10;;;;;;1931820;74;21081;-70
2022/08/29 10:30:31;;;;;;;7.47;3.40;;;29.70;67.00;;;;;;1931906;74;21077;-69
2022/08/29 10:33:29;;;;;;;5.40;3.30;;;29.80;67.00;;;;;;1931580;74;21127;-66
2022/08/29 10:36:13;;;;;;;6.28;3.50;;;29.80;67.00;;;;;;1928316;74;21121;-67
2022/08/29 10:38:51;;;;;;;4.25;3.15;;;29.90;66.90;;;;;;1915501;75;21046;-68
2022/08/29 10:41:52;;;;;;;3.58;3.17;;;29.90;66.90;;;;;;1914742;75;21183;-66
2022/08/29 10:44:30;;;;;;;6.75;3.05;;;30.00;67.20;;;;;;1914524;75;21081;-67
2022/08/29 10:47:17;;;;;;;5.62;2.87;;;30.00;67.00;;;;;;1915506;75;21143;-67
2022/08/29 10:50:10;;;;;;;3.90;2.77;;;30.00;67.00;;;;;;1914461;75;21081;-64
2022/08/29 10:52:42;;;;;;;5.03;3.17;;;30.10;66.70;;;;;;1915369;75;22069;-70
2022/08/29 10:55:40;;;;;;;10.80;3.55;;;30.10;66.80;;;;;;1913782;75;21081;-72
2022/08/29 10:58:17;;;;;;;4.60;2.98;;;30.20;67.00;;;;;;1915766;75;21034;-67
2022/08/29 11:01:06;;;;;;;6.85;3.17;;;30.20;67.10;;;;;;1915070;75;21586;-67
2022/08/29 11:03:44;;;;;;;4.03;2.67;;;30.30;66.90;;;;;;1915125;75;21066;-66
2022/08/29 11:06:25;;;;;;;4.10;2.87;;;30.30;66.10;;;;;;1915373;75;21095;-69
2022/08/29 11:09:16;;;;;;;5.50;2.92;;;30.40;66.40;;;;;;1915479;75;21022;-70
2022/08/29 11:11:48;;;;;;;10.28;2.90;;;30.40;66.10;;;;;;1915369;75;21093;-71
2022/08/29 11:14:26;;;;;;;6.72;3.35;;;30.50;65.60;;;;;;1911907;75;21061;-70
2022/08/29 11:16:58;;;;;;;6.08;3.25;;;30.60;65.10;;;;;;1913733;75;21151;-69
2022/08/29 11:19:51;;;;;;;6.50;3.20;;;30.60;64.80;;;;;;1915434;75;21085;-73
2022/08/29 11:22:35;;;;;;;8.75;3.17;;;30.60;64.40;;;;;;1914789;75;21077;-71
2022/08/29 11:25:09;;;;;;;7.55;4.08;;;30.70;64.90;;;;;;1914622;75;21101;-69
2022/08/29 11:27:47;;;;;;;4.42;2.70;;;30.80;64.10;;;;;;1914521;75;21088;-70
2022/08/29 11:30:19;;;;;;;6.58;3.25;;;30.80;64.10;;;;;;1915533;75;21073;-66
2022/08/29 11:32:53;;;;;;;4.05;2.80;;;30.80;63.50;;;;;;1915437;75;21061;-71
2022/08/29 11:35:26;;;;;;;12.10;3.33;;;30.90;62.90;;;;;;1915442;75;21125;-68
2022/08/29 11:38:22;;;;;;;7.00;3.35;;;30.90;62.60;;;;;;1914842;74;21516;-70
2022/08/29 11:41:15;;;;;;;3.83;2.92;;;30.90;62.50;;;;;;1915302;75;21057;-75
2022/08/29 11:43:47;;;;;;;7.90;3.10;;;30.90;62.40;;;;;;1915621;75;21089;-73
2022/08/29 11:46:19;;;;;;;7.75;3.52;;;31.00;62.50;;;;;;1915903;75;21038;-65
2022/08/29 11:48:51;;;;;;;11.45;3.75;;;31.00;62.70;;;;;;1913570;75;21480;-68
2022/08/29 11:51:39;;;;;;;5.97;3.52;;;31.00;63.00;;;;;;1916119;75;21018;-68
2022/08/29 11:54:27;;;;;;;7.60;3.62;;;31.10;62.60;;;;;;1916268;75;21030;-68
2022/08/29 11:57:05;;;;;;;4.30;3.17;;;31.10;62.80;;;;;;1916291;75;21127;-68
2022/08/29 11:59:49;;;;;;;3.52;3.02;;;31.20;62.30;;;;;;1916103;75;21076;-69
2022/08/29 12:02:33;;;;;;;;;;;31.20;62.10;;;;;;1919058;75;21076;-67
2022/08/29 12:05:10;;;;;;;7.97;4.28;;;31.10;61.20;;;;;;1915061;75;20135;-68
2022/08/29 12:08:03;;;;;;;9.20;4.00;;;31.00;62.20;;;;;;1912156;75;21050;-68
2022/08/29 12:10:35;;;;;;;14.75;4.70;;;30.90;62.00;;;;;;1914399;75;21010;-67
2022/08/29 12:13:06;;;;;;;7.58;4.00;;;30.80;62.20;;;;;;1913320;75;21484;-68
2022/08/29 12:15:38;;;;;;;9.58;6.95;;;30.60;62.50;;;;;;1915959;75;21022;-67
2022/08/29 12:18:14;;;;;;;11.00;4.37;;;30.50;63.10;;;;;;1916160;75;21582;-67
2022/08/29 12:20:48;;;;;;;10.70;3.90;;;30.40;63.20;;;;;;1916100;75;21023;-67
2022/08/29 12:23:29;;;;;;;12.65;4.22;;;30.30;63.30;;;;;;1914875;75;21544;-67
2022/08/29 12:26:04;;;;;;;11.65;4.03;;;30.30;63.70;;;;;;1916214;75;21023;-67
2022/08/29 12:28:46;;;;;;;10.10;4.10;;;30.20;64.40;;;;;;1916227;75;21107;-67
2022/08/29 12:31:37;;;;;;;5.62;3.85;;;30.10;64.60;;;;;;1916125;75;21076;-67
2022/08/29 12:34:15;;;;;;;10.82;4.12;;;30.10;64.80;;;;;;1916124;75;21066;-67
2022/08/29 12:37:03;;;;;;;10.40;4.80;;;30.00;65.00;;;;;;1915414;74;21101;-67
2022/08/29 12:39:55;;;;;;;7.72;3.85;;;29.90;64.90;;;;;;1916048;75;21066;-67
2022/08/29 12:42:29;;;;;;;12.33;4.25;;;29.90;65.20;;;;;;1913836;75;21073;-67
2022/08/29 12:45:05;;;;;;;10.75;5.00;;;29.80;65.40;;;;;;1916080;75;21101;-67
2022/08/29 12:47:37;;;;;;;8.63;5.35;;;29.80;65.80;;;;;;1915932;75;21042;-67
2022/08/29 12:50:09;;;;;;;13.08;4.75;;;29.70;66.20;;;;;;1915959;75;21026;-67
2022/08/29 12:52:38;;;;;;;13.32;4.78;;;29.60;66.70;;;;;;1914798;75;21038;-67
2022/08/29 12:55:25;;;;;;;8.50;4.25;;;29.50;67.20;;;;;;1916039;75;21026;-67
2022/08/29 12:57:55;;;;;;;9.83;4.85;;;29.50;67.50;;;;;;1916066;75;21023;-67
2022/08/29 13:00:30;;;;;;;17.62;6.40;;;29.40;68.10;;;;;;1916132;75;21022;-68
2022/08/29 13:03:08;;;;;;;12.25;4.30;;;29.30;68.60;;;;;;1916015;75;21120;-67
2022/08/29 13:05:39;;;;;;;13.85;4.70;;;29.20;69.10;;;;;;1916116;75;21151;-67
2022/08/29 13:08:14;;;;;;;9.28;4.53;;;29.10;69.70;;;;;;1916023;75;21022;-68
2022/08/29 13:10:59;;;;;;;7.55;4.03;;;28.90;70.60;;;;;;1915925;75;21050;-67
2022/08/29 13:13:29;;;;;;;7.22;4.25;;;28.80;70.60;;;;;;1916246;75;21073;-67
2022/08/29 13:16:00;;;;;;;12.65;4.50;;;28.60;71.50;;;;;;1916107;75;21105;-67
2022/08/29 13:18:31;;;;;;;7.37;4.10;;;28.50;71.80;;;;;;1916165;75;21531;-67